sensor_id;sensor_type;location;lat;lon;timestamp;P1;durP1;ratioP1;P2;durP2;ratioP2
45792;SDS011;31495;42.740;22.908;2023-04-01T00:00:56;12.43;;;4.88;;
45792;SDS011;31495;42.740;22.908;2023-04-01T00:01:58;12.07;;;5.82;;
45792;SDS011;31495;42.740;22.908;2023-04-01T00:02:58;13.65;;;5.55;;
45792;SDS011;31495;42.740;22.908;2023-04-01T00:03:58;9.90;;;4.68;;
45792;SDS011;31495;42.740;22.908;2023-04-01T00:05:01;10.13;;;5.07;;
45792;SDS011;31495;42.740;22.908;2023-04-01T00:06:00;10.63;;;5.07;;
45792;SDS011;31495;42.740;22.908;2023-04-01T00:07:01;12.52;;;5.47;;
45792;SDS011;31495;42.740;22.908;2023-04-01T00:08:01;11.23;;;5.00;;
45792;SDS011;31495;42.740;22.908;2023-04-01T00:09:01;11.48;;;4.90;;
45792;SDS011;31495;42.740;22.908;2023-04-01T00:10:01;12.10;;;5.45;;
45792;SDS011;31495;42.740;22.908;2023-04-01T00:11:01;7.57;;;4.68;;
45792;SDS011;31495;42.740;22.908;2023-04-01T00:12:01;12.63;;;5.25;;
45792;SDS011;31495;42.740;22.908;2023-04-01T00:13:01;13.27;;;5.13;;
45792;SDS011;31495;42.740;22.908;2023-04-01T00:14:06;12.00;;;4.78;;
45792;SDS011;31495;42.740;22.908;2023-04-01T00:15:08;12.52;;;5.28;;
45792;SDS011;31495;42.740;22.908;2023-04-01T00:16:09;9.88;;;5.15;;
45792;SDS011;31495;42.740;22.908;2023-04-01T00:17:10;13.18;;;5.82;;
45792;SDS011;31495;42.740;22.908;2023-04-01T00:18:10;10.98;;;5.05;;
45792;SDS011;31495;42.740;22.908;2023-04-01T00:19:10;12.10;;;5.20;;
45792;SDS011;31495;42.740;22.908;2023-04-01T00:20:11;12.95;;;5.28;;
45792;SDS011;31495;42.740;22.908;2023-04-01T00:21:12;12.35;;;5.72;;
45792;SDS011;31495;42.740;22.908;2023-04-01T00:22:12;18.23;;;5.93;;
45792;SDS011;31495;42.740;22.908;2023-04-01T00:23:12;14.30;;;4.90;;
45792;SDS011;31495;42.740;22.908;2023-04-01T00:24:13;10.48;;;5.07;;
45792;SDS011;31495;42.740;22.908;2023-04-01T00:25:15;13.05;;;5.00;;
45792;SDS011;31495;42.740;22.908;2023-04-01T00:26:15;12.38;;;4.93;;
45792;SDS011;31495;42.740;22.908;2023-04-01T00:27:18;11.07;;;4.68;;
45792;SDS011;31495;42.740;22.908;2023-04-01T00:28:19;10.38;;;4.85;;
45792;SDS011;31495;42.740;22.908;2023-04-01T00:29:19;12.70;;;5.13;;
45792;SDS011;31495;42.740;22.908;2023-04-01T00:30:19;15.55;;;6.72;;
45792;SDS011;31495;42.740;22.908;2023-04-01T00:31:19;13.25;;;7.00;;
45792;SDS011;31495;42.740;22.908;2023-04-01T00:32:20;18.00;;;6.90;;
45792;SDS011;31495;42.740;22.908;2023-04-01T00:33:20;12.18;;;6.50;;
45792;SDS011;31495;42.740;22.908;2023-04-01T00:34:23;19.33;;;6.40;;
45792;SDS011;31495;42.740;22.908;2023-04-01T00:35:23;12.98;;;6.63;;
45792;SDS011;31495;42.740;22.908;2023-04-01T00:36:23;12.45;;;6.95;;
45792;SDS011;31495;42.740;22.908;2023-04-01T00:37:23;16.60;;;5.82;;
45792;SDS011;31495;42.740;22.908;2023-04-01T00:38:24;9.98;;;5.13;;
45792;SDS011;31495;42.740;22.908;2023-04-01T00:39:23;12.90;;;5.30;;
45792;SDS011;31495;42.740;22.908;2023-04-01T00:41:26;18.92;;;6.30;;
45792;SDS011;31495;42.740;22.908;2023-04-01T00:42:27;23.73;;;5.90;;
45792;SDS011;31495;42.740;22.908;2023-04-01T00:43:27;13.50;;;5.63;;
45792;SDS011;31495;42.740;22.908;2023-04-01T00:44:28;12.80;;;5.78;;
45792;SDS011;31495;42.740;22.908;2023-04-01T00:45:33;11.45;;;5.75;;
45792;SDS011;31495;42.740;22.908;2023-04-01T00:46:35;15.88;;;4.97;;
45792;SDS011;31495;42.740;22.908;2023-04-01T00:47:36;15.20;;;6.20;;
45792;SDS011;31495;42.740;22.908;2023-04-01T00:48:37;11.50;;;5.13;;
45792;SDS011;31495;42.740;22.908;2023-04-01T00:49:42;12.07;;;5.07;;
45792;SDS011;31495;42.740;22.908;2023-04-01T00:50:52;14.18;;;5.90;;
45792;SDS011;31495;42.740;22.908;2023-04-01T00:51:57;11.20;;;5.30;;
45792;SDS011;31495;42.740;22.908;2023-04-01T00:53:01;11.93;;;5.25;;
45792;SDS011;31495;42.740;22.908;2023-04-01T00:55:02;11.60;;;5.13;;
45792;SDS011;31495;42.740;22.908;2023-04-01T00:56:17;17.70;;;5.70;;
45792;SDS011;31495;42.740;22.908;2023-04-01T00:57:23;6.15;;;3.10;;
45792;SDS011;31495;42.740;22.908;2023-04-01T00:58:28;5.93;;;2.42;;
45792;SDS011;31495;42.740;22.908;2023-04-01T00:59:34;12.02;;;3.60;;
45792;SDS011;31495;42.740;22.908;2023-04-01T01:00:38;4.50;;;1.88;;
45792;SDS011;31495;42.740;22.908;2023-04-01T01:01:38;6.57;;;1.35;;
45792;SDS011;31495;42.740;22.908;2023-04-01T01:02:38;6.57;;;1.33;;
45792;SDS011;31495;42.740;22.908;2023-04-01T01:03:42;5.03;;;1.52;;
45792;SDS011;31495;42.740;22.908;2023-04-01T01:04:41;9.48;;;1.20;;
45792;SDS011;31495;42.740;22.908;2023-04-01T01:05:49;2.03;;;1.38;;
45792;SDS011;31495;42.740;22.908;2023-04-01T01:11:08;4.68;;;1.23;;
45792;SDS011;31495;42.740;22.908;2023-04-01T01:13:40;4.18;;;1.10;;
45792;SDS011;31495;42.740;22.908;2023-04-01T01:15:07;3.28;;;1.60;;
45792;SDS011;31495;42.740;22.908;2023-04-01T01:16:30;6.22;;;1.52;;
45792;SDS011;31495;42.740;22.908;2023-04-01T01:17:40;3.42;;;1.20;;
45792;SDS011;31495;42.740;22.908;2023-04-01T01:19:50;4.65;;;1.45;;
45792;SDS011;31495;42.740;22.908;2023-04-01T01:22:38;4.30;;;1.38;;
45792;SDS011;31495;42.740;22.908;2023-04-01T01:23:57;7.10;;;2.00;;
45792;SDS011;31495;42.740;22.908;2023-04-01T01:26:07;12.07;;;3.22;;
45792;SDS011;31495;42.740;22.908;2023-04-01T01:27:06;8.57;;;2.67;;
45792;SDS011;31495;42.740;22.908;2023-04-01T01:36:14;5.15;;;1.63;;
45792;SDS011;31495;42.740;22.908;2023-04-01T01:38:17;4.00;;;1.98;;
45792;SDS011;31495;42.740;22.908;2023-04-01T01:39:20;10.27;;;1.90;;
45792;SDS011;31495;42.740;22.908;2023-04-01T01:40:27;5.82;;;2.03;;
45792;SDS011;31495;42.740;22.908;2023-04-01T01:41:29;4.18;;;1.80;;
45792;SDS011;31495;42.740;22.908;2023-04-01T01:42:31;8.75;;;2.25;;
45792;SDS011;31495;42.740;22.908;2023-04-01T01:43:40;7.63;;;1.73;;
45792;SDS011;31495;42.740;22.908;2023-04-01T01:44:45;5.72;;;1.65;;
45792;SDS011;31495;42.740;22.908;2023-04-01T01:45:48;7.20;;;2.17;;
45792;SDS011;31495;42.740;22.908;2023-04-01T01:46:53;5.10;;;2.40;;
45792;SDS011;31495;42.740;22.908;2023-04-01T01:47:55;10.27;;;1.98;;
45792;SDS011;31495;42.740;22.908;2023-04-01T01:48:57;5.25;;;1.48;;
45792;SDS011;31495;42.740;22.908;2023-04-01T01:49:59;5.90;;;2.25;;
45792;SDS011;31495;42.740;22.908;2023-04-01T01:52:01;6.28;;;2.30;;
45792;SDS011;31495;42.740;22.908;2023-04-01T01:53:05;5.30;;;2.42;;
45792;SDS011;31495;42.740;22.908;2023-04-01T01:54:07;6.22;;;1.73;;
45792;SDS011;31495;42.740;22.908;2023-04-01T01:55:26;4.97;;;1.90;;
45792;SDS011;31495;42.740;22.908;2023-04-01T01:56:30;4.07;;;1.65;;
45792;SDS011;31495;42.740;22.908;2023-04-01T01:57:33;10.18;;;2.45;;
45792;SDS011;31495;42.740;22.908;2023-04-01T01:58:47;6.18;;;1.45;;
45792;SDS011;31495;42.740;22.908;2023-04-01T01:59:51;4.97;;;1.85;;
45792;SDS011;31495;42.740;22.908;2023-04-01T02:00:57;7.90;;;2.15;;
45792;SDS011;31495;42.740;22.908;2023-04-01T02:02:00;5.68;;;2.85;;
45792;SDS011;31495;42.740;22.908;2023-04-01T02:03:06;7.85;;;2.45;;
45792;SDS011;31495;42.740;22.908;2023-04-01T02:04:07;14.27;;;2.70;;
45792;SDS011;31495;42.740;22.908;2023-04-01T02:05:10;10.02;;;2.42;;
45792;SDS011;31495;42.740;22.908;2023-04-01T02:06:16;6.90;;;2.53;;
45792;SDS011;31495;42.740;22.908;2023-04-01T02:07:21;9.02;;;3.50;;
45792;SDS011;31495;42.740;22.908;2023-04-01T02:08:26;10.70;;;4.00;;
45792;SDS011;31495;42.740;22.908;2023-04-01T02:09:30;5.72;;;2.08;;
45792;SDS011;31495;42.740;22.908;2023-04-01T02:10:34;8.90;;;3.20;;
45792;SDS011;31495;42.740;22.908;2023-04-01T02:12:51;9.27;;;2.53;;
45792;SDS011;31495;42.740;22.908;2023-04-01T02:13:54;6.60;;;2.28;;
45792;SDS011;31495;42.740;22.908;2023-04-01T02:15:03;5.00;;;2.45;;
45792;SDS011;31495;42.740;22.908;2023-04-01T02:16:09;11.27;;;2.33;;
45792;SDS011;31495;42.740;22.908;2023-04-01T02:17:21;6.20;;;2.17;;
45792;SDS011;31495;42.740;22.908;2023-04-01T02:18:25;5.22;;;1.88;;
45792;SDS011;31495;42.740;22.908;2023-04-01T02:19:38;5.85;;;1.98;;
45792;SDS011;31495;42.740;22.908;2023-04-01T02:20:40;6.90;;;1.80;;
45792;SDS011;31495;42.740;22.908;2023-04-01T02:21:41;4.05;;;1.73;;
45792;SDS011;31495;42.740;22.908;2023-04-01T02:22:44;11.48;;;1.60;;
45792;SDS011;31495;42.740;22.908;2023-04-01T02:23:49;5.93;;;1.52;;
45792;SDS011;31495;42.740;22.908;2023-04-01T02:24:56;8.48;;;1.77;;
45792;SDS011;31495;42.740;22.908;2023-04-01T02:25:59;7.18;;;2.00;;
45792;SDS011;31495;42.740;22.908;2023-04-01T02:26:59;10.52;;;2.28;;
45792;SDS011;31495;42.740;22.908;2023-04-01T02:27:59;12.13;;;1.95;;
45792;SDS011;31495;42.740;22.908;2023-04-01T02:29:01;6.35;;;1.88;;
45792;SDS011;31495;42.740;22.908;2023-04-01T02:30:03;7.10;;;2.22;;
45792;SDS011;31495;42.740;22.908;2023-04-01T02:31:03;6.60;;;1.83;;
45792;SDS011;31495;42.740;22.908;2023-04-01T02:32:03;4.00;;;1.55;;
45792;SDS011;31495;42.740;22.908;2023-04-01T02:33:05;6.80;;;2.38;;
45792;SDS011;31495;42.740;22.908;2023-04-01T02:34:05;6.47;;;1.77;;
45792;SDS011;31495;42.740;22.908;2023-04-01T02:35:07;4.45;;;1.60;;
45792;SDS011;31495;42.740;22.908;2023-04-01T02:36:12;7.05;;;2.35;;
45792;SDS011;31495;42.740;22.908;2023-04-01T02:37:14;6.00;;;2.55;;
45792;SDS011;31495;42.740;22.908;2023-04-01T02:38:14;6.78;;;2.50;;
45792;SDS011;31495;42.740;22.908;2023-04-01T02:39:15;7.13;;;2.40;;
45792;SDS011;31495;42.740;22.908;2023-04-01T02:40:15;11.65;;;3.28;;
45792;SDS011;31495;42.740;22.908;2023-04-01T02:41:16;9.05;;;2.53;;
45792;SDS011;31495;42.740;22.908;2023-04-01T02:42:16;10.68;;;2.38;;
45792;SDS011;31495;42.740;22.908;2023-04-01T02:43:15;9.13;;;1.95;;
45792;SDS011;31495;42.740;22.908;2023-04-01T02:44:16;7.63;;;1.67;;
45792;SDS011;31495;42.740;22.908;2023-04-01T02:45:19;7.45;;;2.40;;
45792;SDS011;31495;42.740;22.908;2023-04-01T02:46:19;9.73;;;2.35;;
45792;SDS011;31495;42.740;22.908;2023-04-01T02:47:19;4.80;;;2.17;;
45792;SDS011;31495;42.740;22.908;2023-04-01T02:48:19;7.43;;;1.95;;
45792;SDS011;31495;42.740;22.908;2023-04-01T02:49:19;5.47;;;2.78;;
45792;SDS011;31495;42.740;22.908;2023-04-01T02:50:19;4.68;;;2.20;;
45792;SDS011;31495;42.740;22.908;2023-04-01T02:51:19;11.00;;;1.50;;
45792;SDS011;31495;42.740;22.908;2023-04-01T02:52:18;11.85;;;1.85;;
45792;SDS011;31495;42.740;22.908;2023-04-01T02:53:18;6.75;;;1.88;;
45792;SDS011;31495;42.740;22.908;2023-04-01T02:54:19;3.28;;;1.80;;
45792;SDS011;31495;42.740;22.908;2023-04-01T02:55:19;7.83;;;1.73;;
45792;SDS011;31495;42.740;22.908;2023-04-01T02:56:19;4.18;;;1.80;;
45792;SDS011;31495;42.740;22.908;2023-04-01T02:57:19;9.45;;;2.03;;
45792;SDS011;31495;42.740;22.908;2023-04-01T02:58:19;6.40;;;1.98;;
45792;SDS011;31495;42.740;22.908;2023-04-01T02:59:19;11.65;;;3.03;;
45792;SDS011;31495;42.740;22.908;2023-04-01T03:00:19;10.98;;;5.20;;
45792;SDS011;31495;42.740;22.908;2023-04-01T03:01:19;11.77;;;4.63;;
45792;SDS011;31495;42.740;22.908;2023-04-01T03:02:19;15.20;;;5.60;;
45792;SDS011;31495;42.740;22.908;2023-04-01T03:03:19;10.13;;;5.78;;
45792;SDS011;31495;42.740;22.908;2023-04-01T03:04:19;11.05;;;4.45;;
45792;SDS011;31495;42.740;22.908;2023-04-01T03:05:19;10.45;;;4.78;;
45792;SDS011;31495;42.740;22.908;2023-04-01T03:06:19;8.70;;;4.40;;
45792;SDS011;31495;42.740;22.908;2023-04-01T03:07:19;13.15;;;4.43;;
45792;SDS011;31495;42.740;22.908;2023-04-01T03:08:19;7.90;;;3.97;;
45792;SDS011;31495;42.740;22.908;2023-04-01T03:09:19;7.43;;;2.95;;
45792;SDS011;31495;42.740;22.908;2023-04-01T03:10:19;6.55;;;2.50;;
45792;SDS011;31495;42.740;22.908;2023-04-01T03:11:19;8.13;;;2.58;;
45792;SDS011;31495;42.740;22.908;2023-04-01T03:12:20;10.50;;;3.20;;
45792;SDS011;31495;42.740;22.908;2023-04-01T03:13:20;8.65;;;2.42;;
45792;SDS011;31495;42.740;22.908;2023-04-01T03:14:20;7.88;;;2.33;;
45792;SDS011;31495;42.740;22.908;2023-04-01T03:15:20;11.07;;;3.47;;
45792;SDS011;31495;42.740;22.908;2023-04-01T03:16:20;9.32;;;3.45;;
45792;SDS011;31495;42.740;22.908;2023-04-01T03:17:20;9.93;;;2.95;;
45792;SDS011;31495;42.740;22.908;2023-04-01T03:18:20;7.03;;;2.92;;
45792;SDS011;31495;42.740;22.908;2023-04-01T03:19:20;9.25;;;3.30;;
45792;SDS011;31495;42.740;22.908;2023-04-01T03:20:20;15.60;;;4.55;;
45792;SDS011;31495;42.740;22.908;2023-04-01T03:21:21;5.63;;;2.75;;
45792;SDS011;31495;42.740;22.908;2023-04-01T03:22:22;7.20;;;2.65;;
45792;SDS011;31495;42.740;22.908;2023-04-01T03:23:22;6.95;;;2.65;;
45792;SDS011;31495;42.740;22.908;2023-04-01T03:24:23;9.35;;;3.08;;
45792;SDS011;31495;42.740;22.908;2023-04-01T03:25:23;8.15;;;3.40;;
45792;SDS011;31495;42.740;22.908;2023-04-01T03:26:23;7.50;;;2.95;;
45792;SDS011;31495;42.740;22.908;2023-04-01T03:27:23;6.55;;;2.33;;
45792;SDS011;31495;42.740;22.908;2023-04-01T03:28:23;5.80;;;2.55;;
45792;SDS011;31495;42.740;22.908;2023-04-01T03:29:23;7.53;;;3.45;;
45792;SDS011;31495;42.740;22.908;2023-04-01T03:30:23;5.55;;;2.67;;
45792;SDS011;31495;42.740;22.908;2023-04-01T03:31:23;8.18;;;2.72;;
45792;SDS011;31495;42.740;22.908;2023-04-01T03:32:23;8.70;;;3.08;;
45792;SDS011;31495;42.740;22.908;2023-04-01T03:33:23;12.25;;;3.08;;
45792;SDS011;31495;42.740;22.908;2023-04-01T03:34:23;5.95;;;2.70;;
45792;SDS011;31495;42.740;22.908;2023-04-01T03:35:24;6.80;;;3.10;;
45792;SDS011;31495;42.740;22.908;2023-04-01T03:36:24;8.50;;;3.67;;
45792;SDS011;31495;42.740;22.908;2023-04-01T03:37:24;10.98;;;3.42;;
45792;SDS011;31495;42.740;22.908;2023-04-01T03:38:24;8.23;;;3.45;;
45792;SDS011;31495;42.740;22.908;2023-04-01T03:39:24;14.32;;;5.00;;
45792;SDS011;31495;42.740;22.908;2023-04-01T03:40:24;7.95;;;4.53;;
45792;SDS011;31495;42.740;22.908;2023-04-01T03:41:25;9.80;;;3.88;;
45792;SDS011;31495;42.740;22.908;2023-04-01T03:42:26;10.27;;;3.75;;
45792;SDS011;31495;42.740;22.908;2023-04-01T03:43:26;9.95;;;3.83;;
45792;SDS011;31495;42.740;22.908;2023-04-01T03:44:30;7.38;;;3.63;;
45792;SDS011;31495;42.740;22.908;2023-04-01T03:45:31;8.52;;;3.85;;
45792;SDS011;31495;42.740;22.908;2023-04-01T03:46:31;9.27;;;3.90;;
45792;SDS011;31495;42.740;22.908;2023-04-01T03:47:31;6.78;;;2.55;;
45792;SDS011;31495;42.740;22.908;2023-04-01T03:48:31;7.75;;;2.67;;
45792;SDS011;31495;42.740;22.908;2023-04-01T03:49:30;4.95;;;2.10;;
45792;SDS011;31495;42.740;22.908;2023-04-01T03:50:31;5.70;;;2.63;;
45792;SDS011;31495;42.740;22.908;2023-04-01T03:51:33;9.73;;;3.45;;
45792;SDS011;31495;42.740;22.908;2023-04-01T03:52:34;8.38;;;3.40;;
45792;SDS011;31495;42.740;22.908;2023-04-01T03:53:34;10.05;;;2.95;;
45792;SDS011;31495;42.740;22.908;2023-04-01T03:54:34;5.70;;;2.53;;
45792;SDS011;31495;42.740;22.908;2023-04-01T03:55:35;8.73;;;2.42;;
45792;SDS011;31495;42.740;22.908;2023-04-01T03:56:36;6.00;;;3.13;;
45792;SDS011;31495;42.740;22.908;2023-04-01T03:57:36;4.43;;;2.33;;
45792;SDS011;31495;42.740;22.908;2023-04-01T03:58:36;5.13;;;2.20;;
45792;SDS011;31495;42.740;22.908;2023-04-01T03:59:38;6.15;;;2.60;;
45792;SDS011;31495;42.740;22.908;2023-04-01T04:00:38;5.05;;;2.63;;
45792;SDS011;31495;42.740;22.908;2023-04-01T04:01:38;5.88;;;3.35;;
45792;SDS011;31495;42.740;22.908;2023-04-01T04:02:37;5.03;;;2.50;;
45792;SDS011;31495;42.740;22.908;2023-04-01T04:03:37;7.97;;;2.03;;
45792;SDS011;31495;42.740;22.908;2023-04-01T04:04:38;4.35;;;2.05;;
45792;SDS011;31495;42.740;22.908;2023-04-01T04:05:40;4.45;;;1.85;;
45792;SDS011;31495;42.740;22.908;2023-04-01T04:06:46;4.47;;;1.98;;
45792;SDS011;31495;42.740;22.908;2023-04-01T04:07:46;5.88;;;2.00;;
45792;SDS011;31495;42.740;22.908;2023-04-01T04:08:45;4.70;;;2.50;;
45792;SDS011;31495;42.740;22.908;2023-04-01T04:09:45;6.45;;;3.08;;
45792;SDS011;31495;42.740;22.908;2023-04-01T04:10:47;4.22;;;2.05;;
45792;SDS011;31495;42.740;22.908;2023-04-01T04:11:47;8.38;;;2.83;;
45792;SDS011;31495;42.740;22.908;2023-04-01T04:12:48;9.73;;;3.00;;
45792;SDS011;31495;42.740;22.908;2023-04-01T04:13:49;7.78;;;2.63;;
45792;SDS011;31495;42.740;22.908;2023-04-01T04:14:51;6.80;;;3.55;;
45792;SDS011;31495;42.740;22.908;2023-04-01T04:15:51;6.97;;;3.30;;
45792;SDS011;31495;42.740;22.908;2023-04-01T04:16:51;12.27;;;4.05;;
45792;SDS011;31495;42.740;22.908;2023-04-01T04:17:51;10.88;;;5.30;;
45792;SDS011;31495;42.740;22.908;2023-04-01T04:18:54;14.55;;;6.25;;
45792;SDS011;31495;42.740;22.908;2023-04-01T04:19:54;10.38;;;4.38;;
45792;SDS011;31495;42.740;22.908;2023-04-01T04:20:54;11.45;;;5.43;;
45792;SDS011;31495;42.740;22.908;2023-04-01T04:21:55;10.57;;;5.53;;
45792;SDS011;31495;42.740;22.908;2023-04-01T04:22:55;12.07;;;6.22;;
45792;SDS011;31495;42.740;22.908;2023-04-01T04:23:54;16.48;;;5.75;;
45792;SDS011;31495;42.740;22.908;2023-04-01T04:24:54;15.40;;;5.57;;
45792;SDS011;31495;42.740;22.908;2023-04-01T04:26:06;14.68;;;6.07;;
45792;SDS011;31495;42.740;22.908;2023-04-01T04:27:07;14.30;;;5.38;;
45792;SDS011;31495;42.740;22.908;2023-04-01T04:28:07;12.02;;;6.40;;
45792;SDS011;31495;42.740;22.908;2023-04-01T04:29:07;15.93;;;6.63;;
45792;SDS011;31495;42.740;22.908;2023-04-01T04:30:08;11.68;;;7.25;;
45792;SDS011;31495;42.740;22.908;2023-04-01T04:31:08;15.35;;;8.48;;
45792;SDS011;31495;42.740;22.908;2023-04-01T04:32:08;14.65;;;8.95;;
45792;SDS011;31495;42.740;22.908;2023-04-01T04:33:08;18.40;;;8.85;;
45792;SDS011;31495;42.740;22.908;2023-04-01T04:34:08;14.02;;;8.10;;
45792;SDS011;31495;42.740;22.908;2023-04-01T04:35:08;15.02;;;10.07;;
45792;SDS011;31495;42.740;22.908;2023-04-01T04:36:09;19.65;;;9.82;;
45792;SDS011;31495;42.740;22.908;2023-04-01T04:37:08;17.25;;;8.95;;
45792;SDS011;31495;42.740;22.908;2023-04-01T04:38:08;14.63;;;7.55;;
45792;SDS011;31495;42.740;22.908;2023-04-01T04:39:08;13.88;;;8.27;;
45792;SDS011;31495;42.740;22.908;2023-04-01T04:40:08;18.83;;;8.25;;
45792;SDS011;31495;42.740;22.908;2023-04-01T04:41:12;17.85;;;8.10;;
45792;SDS011;31495;42.740;22.908;2023-04-01T04:42:13;12.93;;;7.82;;
45792;SDS011;31495;42.740;22.908;2023-04-01T04:43:14;13.30;;;6.93;;
45792;SDS011;31495;42.740;22.908;2023-04-01T04:44:16;19.63;;;8.20;;
45792;SDS011;31495;42.740;22.908;2023-04-01T04:45:16;15.27;;;8.13;;
45792;SDS011;31495;42.740;22.908;2023-04-01T04:46:16;14.27;;;7.72;;
45792;SDS011;31495;42.740;22.908;2023-04-01T04:47:16;16.67;;;7.75;;
45792;SDS011;31495;42.740;22.908;2023-04-01T04:48:17;15.13;;;7.82;;
45792;SDS011;31495;42.740;22.908;2023-04-01T04:49:19;14.10;;;7.65;;
45792;SDS011;31495;42.740;22.908;2023-04-01T04:50:21;17.35;;;7.82;;
45792;SDS011;31495;42.740;22.908;2023-04-01T04:51:21;14.95;;;7.97;;
45792;SDS011;31495;42.740;22.908;2023-04-01T04:52:21;18.30;;;7.35;;
45792;SDS011;31495;42.740;22.908;2023-04-01T04:53:21;14.07;;;7.15;;
45792;SDS011;31495;42.740;22.908;2023-04-01T04:54:21;17.98;;;9.48;;
45792;SDS011;31495;42.740;22.908;2023-04-01T04:55:21;15.13;;;9.13;;
45792;SDS011;31495;42.740;22.908;2023-04-01T04:56:22;15.43;;;9.00;;
45792;SDS011;31495;42.740;22.908;2023-04-01T04:57:24;12.80;;;8.40;;
45792;SDS011;31495;42.740;22.908;2023-04-01T04:58:24;12.02;;;6.95;;
45792;SDS011;31495;42.740;22.908;2023-04-01T04:59:24;16.70;;;8.43;;
45792;SDS011;31495;42.740;22.908;2023-04-01T05:00:25;15.05;;;7.78;;
45792;SDS011;31495;42.740;22.908;2023-04-01T05:01:27;14.32;;;8.85;;
45792;SDS011;31495;42.740;22.908;2023-04-01T05:02:27;19.67;;;8.57;;
45792;SDS011;31495;42.740;22.908;2023-04-01T05:03:27;14.02;;;8.65;;
45792;SDS011;31495;42.740;22.908;2023-04-01T05:04:27;15.73;;;9.25;;
45792;SDS011;31495;42.740;22.908;2023-04-01T05:05:27;16.35;;;8.93;;
45792;SDS011;31495;42.740;22.908;2023-04-01T05:06:30;22.05;;;12.27;;
45792;SDS011;31495;42.740;22.908;2023-04-01T05:07:30;21.33;;;11.38;;
45792;SDS011;31495;42.740;22.908;2023-04-01T05:08:30;25.30;;;11.48;;
45792;SDS011;31495;42.740;22.908;2023-04-01T05:09:31;38.60;;;26.40;;
45792;SDS011;31495;42.740;22.908;2023-04-01T05:10:32;47.90;;;29.05;;
45792;SDS011;31495;42.740;22.908;2023-04-01T05:11:32;57.58;;;39.00;;
45792;SDS011;31495;42.740;22.908;2023-04-01T05:12:32;50.05;;;33.22;;
45792;SDS011;31495;42.740;22.908;2023-04-01T05:13:35;41.17;;;28.63;;
45792;SDS011;31495;42.740;22.908;2023-04-01T05:14:35;38.08;;;25.67;;
45792;SDS011;31495;42.740;22.908;2023-04-01T05:15:36;41.08;;;24.58;;
45792;SDS011;31495;42.740;22.908;2023-04-01T05:16:36;24.63;;;16.27;;
45792;SDS011;31495;42.740;22.908;2023-04-01T05:17:36;28.90;;;18.30;;
45792;SDS011;31495;42.740;22.908;2023-04-01T05:18:35;23.27;;;15.07;;
45792;SDS011;31495;42.740;22.908;2023-04-01T05:19:35;26.00;;;15.10;;
45792;SDS011;31495;42.740;22.908;2023-04-01T05:20:35;24.42;;;14.95;;
45792;SDS011;31495;42.740;22.908;2023-04-01T05:21:35;32.05;;;19.15;;
45792;SDS011;31495;42.740;22.908;2023-04-01T05:22:34;29.85;;;20.08;;
45792;SDS011;31495;42.740;22.908;2023-04-01T05:23:33;33.75;;;19.88;;
45792;SDS011;31495;42.740;22.908;2023-04-01T05:24:33;26.80;;;15.90;;
45792;SDS011;31495;42.740;22.908;2023-04-01T05:25:33;24.73;;;14.50;;
45792;SDS011;31495;42.740;22.908;2023-04-01T05:26:37;23.80;;;13.82;;
45792;SDS011;31495;42.740;22.908;2023-04-01T05:27:36;22.45;;;13.95;;
45792;SDS011;31495;42.740;22.908;2023-04-01T05:28:36;25.48;;;13.82;;
45792;SDS011;31495;42.740;22.908;2023-04-01T05:29:35;21.15;;;13.43;;
45792;SDS011;31495;42.740;22.908;2023-04-01T05:30:34;13.15;;;6.72;;
45792;SDS011;31495;42.740;22.908;2023-04-01T05:31:34;13.90;;;7.22;;
45792;SDS011;31495;42.740;22.908;2023-04-01T05:32:33;13.85;;;8.10;;
45792;SDS011;31495;42.740;22.908;2023-04-01T05:33:33;21.30;;;11.52;;
45792;SDS011;31495;42.740;22.908;2023-04-01T05:34:33;22.30;;;12.68;;
45792;SDS011;31495;42.740;22.908;2023-04-01T05:35:32;18.67;;;11.38;;
45792;SDS011;31495;42.740;22.908;2023-04-01T05:36:32;20.05;;;11.10;;
45792;SDS011;31495;42.740;22.908;2023-04-01T05:37:33;18.55;;;10.18;;
45792;SDS011;31495;42.740;22.908;2023-04-01T05:38:34;15.55;;;9.60;;
45792;SDS011;31495;42.740;22.908;2023-04-01T05:39:37;15.30;;;10.82;;
45792;SDS011;31495;42.740;22.908;2023-04-01T05:40:37;18.75;;;11.80;;
45792;SDS011;31495;42.740;22.908;2023-04-01T05:41:37;13.25;;;7.35;;
45792;SDS011;31495;42.740;22.908;2023-04-01T05:42:37;12.48;;;8.27;;
45792;SDS011;31495;42.740;22.908;2023-04-01T05:43:36;5.30;;;2.67;;
45792;SDS011;31495;42.740;22.908;2023-04-01T05:44:37;5.85;;;4.10;;
45792;SDS011;31495;42.740;22.908;2023-04-01T05:45:36;8.38;;;2.78;;
45792;SDS011;31495;42.740;22.908;2023-04-01T05:46:36;4.55;;;1.75;;
45792;SDS011;31495;42.740;22.908;2023-04-01T05:47:36;5.05;;;2.38;;
45792;SDS011;31495;42.740;22.908;2023-04-01T05:48:35;10.27;;;1.40;;
45792;SDS011;31495;42.740;22.908;2023-04-01T05:49:35;5.40;;;1.33;;
45792;SDS011;31495;42.740;22.908;2023-04-01T05:50:34;3.97;;;1.58;;
45792;SDS011;31495;42.740;22.908;2023-04-01T05:51:34;3.95;;;1.83;;
45792;SDS011;31495;42.740;22.908;2023-04-01T05:52:34;5.60;;;1.15;;
45792;SDS011;31495;42.740;22.908;2023-04-01T05:53:33;4.63;;;1.23;;
45792;SDS011;31495;42.740;22.908;2023-04-01T05:54:32;3.58;;;1.35;;
45792;SDS011;31495;42.740;22.908;2023-04-01T05:55:32;6.45;;;1.67;;
45792;SDS011;31495;42.740;22.908;2023-04-01T05:56:34;4.90;;;1.42;;
45792;SDS011;31495;42.740;22.908;2023-04-01T05:57:34;6.93;;;1.55;;
45792;SDS011;31495;42.740;22.908;2023-04-01T05:58:33;6.15;;;1.60;;
45792;SDS011;31495;42.740;22.908;2023-04-01T05:59:33;3.78;;;1.30;;
45792;SDS011;31495;42.740;22.908;2023-04-01T06:00:34;5.47;;;1.70;;
45792;SDS011;31495;42.740;22.908;2023-04-01T06:01:33;3.70;;;1.27;;
45792;SDS011;31495;42.740;22.908;2023-04-01T06:02:32;5.47;;;1.75;;
45792;SDS011;31495;42.740;22.908;2023-04-01T06:03:32;3.35;;;1.13;;
45792;SDS011;31495;42.740;22.908;2023-04-01T06:04:32;6.63;;;1.92;;
45792;SDS011;31495;42.740;22.908;2023-04-01T06:05:38;8.68;;;3.40;;
45792;SDS011;31495;42.740;22.908;2023-04-01T06:06:39;3.97;;;1.42;;
45792;SDS011;31495;42.740;22.908;2023-04-01T06:07:39;7.55;;;1.70;;
45792;SDS011;31495;42.740;22.908;2023-04-01T06:08:39;5.40;;;2.40;;
45792;SDS011;31495;42.740;22.908;2023-04-01T06:09:39;5.50;;;2.35;;
45792;SDS011;31495;42.740;22.908;2023-04-01T06:16:08;5.03;;;2.35;;
45792;SDS011;31495;42.740;22.908;2023-04-01T06:17:35;6.32;;;2.08;;
45792;SDS011;31495;42.740;22.908;2023-04-01T06:20:15;4.97;;;1.48;;
45792;SDS011;31495;42.740;22.908;2023-04-01T06:24:10;7.85;;;1.48;;
45792;SDS011;31495;42.740;22.908;2023-04-01T06:25:38;4.35;;;1.55;;
45792;SDS011;31495;42.740;22.908;2023-04-01T06:26:48;4.28;;;1.23;;
45792;SDS011;31495;42.740;22.908;2023-04-01T06:29:58;8.82;;;2.22;;
45792;SDS011;31495;42.740;22.908;2023-04-01T06:33:35;6.00;;;1.45;;
45792;SDS011;31495;42.740;22.908;2023-04-01T06:35:02;11.57;;;3.28;;
45792;SDS011;31495;42.740;22.908;2023-04-01T06:43:07;12.77;;;5.07;;
45792;SDS011;31495;42.740;22.908;2023-04-01T06:46:59;7.75;;;2.60;;
45792;SDS011;31495;42.740;22.908;2023-04-01T06:50:54;7.90;;;2.63;;
45792;SDS011;31495;42.740;22.908;2023-04-01T06:53:25;10.10;;;2.80;;
45792;SDS011;31495;42.740;22.908;2023-04-01T06:54:37;4.43;;;2.15;;
45792;SDS011;31495;42.740;22.908;2023-04-01T06:56:28;6.50;;;2.13;;